createdAt,value
2022-09-21T00:01:27.859Z,10.49
2022-09-21T00:04:00.984Z,10.45
2022-09-21T00:06:30.399Z,10.45
2022-09-21T00:08:58.276Z,10.42
2022-09-21T00:11:30.799Z,10.43
2022-09-21T00:14:04.620Z,10.62
2022-09-21T00:16:32.283Z,10.74
2022-09-21T00:19:00.258Z,10.69
2022-09-21T00:21:28.319Z,10.71
2022-09-21T00:23:55.504Z,10.54
2022-09-21T00:26:26.045Z,10.62
2022-09-21T00:29:01.905Z,10.76
2022-09-21T00:31:31.105Z,10.91
2022-09-21T00:34:00.294Z,10.86
2022-09-21T00:36:28.507Z,10.79
2022-09-21T00:38:59.638Z,10.92
2022-09-21T00:41:29.434Z,10.71
2022-09-21T00:44:18.259Z,10.65
2022-09-21T00:46:48.975Z,10.71
2022-09-21T00:49:16.923Z,10.67
2022-09-21T00:51:45.120Z,10.74
2022-09-21T00:54:20.042Z,10.82
2022-09-21T00:56:47.403Z,10.74
2022-09-21T00:59:21.427Z,10.71
2022-09-21T01:01:49.647Z,10.71
2022-09-21T01:04:19.072Z,10.72
2022-09-21T01:06:47.914Z,10.76
2022-09-21T01:09:17.355Z,10.80
2022-09-21T01:12:23.181Z,10.83
2022-09-21T01:15:22.220Z,10.90
2022-09-21T01:18:26.528Z,10.90
2022-09-21T01:21:33.277Z,10.83
2022-09-21T01:24:29.764Z,10.78
2022-09-21T01:27:36.139Z,10.80
2022-09-21T01:30:23.661Z,10.72
2022-09-21T01:33:09.621Z,10.78
2022-09-21T01:36:01.086Z,10.87
2022-09-21T01:38:35.655Z,10.89
2022-09-21T01:41:07.163Z,10.90
2022-09-21T01:43:42.827Z,10.90
2022-09-21T01:46:17.703Z,10.89
2022-09-21T01:48:53.143Z,10.78
2022-09-21T01:51:24.493Z,10.86
2022-09-21T01:54:05.464Z,10.79
2022-09-21T01:56:54.863Z,10.84
2022-09-21T01:59:47.599Z,10.81
2022-09-21T02:02:42.163Z,10.82
2022-09-21T02:05:10.777Z,10.90
2022-09-21T02:07:39.629Z,10.83
2022-09-21T02:10:13.534Z,10.92
2022-09-21T02:12:40.698Z,10.87
2022-09-21T02:15:08.615Z,10.86
2022-09-21T02:18:03.767Z,10.84
2022-09-21T02:21:08.650Z,10.80
2022-09-21T02:24:02.061Z,10.80
2022-09-21T02:26:49.375Z,10.89
2022-09-21T02:29:33.513Z,10.84
2022-09-21T02:32:12.461Z,10.80
2022-09-21T02:34:53.388Z,10.71
2022-09-21T02:37:45.925Z,10.83
2022-09-21T02:40:31.456Z,10.74
2022-09-21T02:43:12.162Z,10.70
2022-09-21T02:45:48.124Z,10.78
2022-09-21T02:48:21.553Z,10.84
2022-09-21T02:50:53.987Z,10.83
2022-09-21T02:53:37.049Z,10.78
2022-09-21T02:56:07.351Z,10.76
2022-09-21T02:58:57.340Z,10.78
2022-09-21T03:01:26.482Z,10.78
2022-09-21T03:03:53.657Z,10.85
2022-09-21T03:06:20.709Z,10.96
2022-09-21T03:08:47.695Z,10.88
2022-09-21T03:11:18.992Z,11.08
2022-09-21T03:13:46.475Z,10.95
2022-09-21T03:16:14.047Z,10.80
2022-09-21T03:18:43.207Z,10.92
2022-09-21T03:21:12.406Z,10.82
2022-09-21T03:23:40.387Z,10.88
2022-09-21T03:26:08.605Z,10.81
2022-09-21T03:28:35.733Z,10.84
2022-09-21T03:31:02.940Z,10.86
2022-09-21T03:33:29.998Z,10.91
2022-09-21T03:35:56.998Z,10.95
2022-09-21T03:38:26.976Z,10.93
2022-09-21T03:40:57.957Z,11.02
2022-09-21T03:43:25.396Z,11.02
2022-09-21T03:45:53.213Z,10.95
2022-09-21T03:48:20.217Z,10.91
2022-09-21T03:50:47.171Z,10.94
2022-09-21T03:53:14.213Z,11.00
2022-09-21T03:55:41.869Z,10.95
2022-09-21T03:58:09.100Z,10.91
2022-09-21T04:00:39.202Z,10.97
2022-09-21T04:03:06.259Z,10.95
2022-09-21T04:05:33.186Z,11.00
2022-09-21T04:08:02.079Z,10.98
2022-09-21T04:10:32.876Z,11.02
2022-09-21T04:13:02.123Z,11.06
2022-09-21T04:15:30.081Z,11.02
2022-09-21T04:17:58.018Z,11.06
2022-09-21T04:20:24.979Z,11.03
2022-09-21T04:22:52.598Z,11.09
2022-09-21T04:25:19.881Z,11.05
2022-09-21T04:27:46.888Z,11.04
2022-09-21T04:30:16.139Z,11.06
2022-09-21T04:32:43.468Z,11.14
2022-09-21T04:35:10.974Z,11.09
2022-09-21T04:37:38.003Z,11.15
2022-09-21T04:40:06.421Z,11.15
2022-09-21T04:42:33.661Z,11.17
2022-09-21T04:45:00.746Z,11.11
2022-09-21T04:47:31.096Z,11.31
2022-09-21T04:49:58.063Z,11.26
2022-09-21T04:52:25.645Z,11.14
2022-09-21T04:54:53.260Z,11.15
2022-09-21T04:57:20.293Z,11.21
2022-09-21T04:59:47.257Z,11.20
2022-09-21T05:02:14.200Z,11.10
2022-09-21T05:04:41.215Z,11.18
2022-09-21T05:07:08.140Z,11.33
2022-09-21T05:09:54.081Z,11.26
2022-09-21T05:12:21.036Z,11.40
2022-09-21T05:14:47.968Z,11.56
2022-09-21T05:17:15.039Z,11.40
2022-09-21T05:19:41.947Z,11.48
2022-09-21T05:22:08.985Z,11.49
2022-09-21T05:24:35.898Z,11.46
2022-09-21T05:27:02.846Z,11.49
2022-09-21T05:29:30.072Z,11.47
2022-09-21T05:32:16.198Z,11.50
2022-09-21T05:34:53.285Z,11.56
2022-09-21T05:37:45.832Z,11.60
2022-09-21T05:40:14.333Z,11.53
2022-09-21T05:42:41.917Z,11.75
2022-09-21T05:45:17.401Z,11.54
2022-09-21T05:47:59.017Z,11.55
2022-09-21T05:50:56.973Z,11.81
2022-09-21T05:54:15.441Z,11.99
2022-09-21T05:56:56.440Z,11.88
2022-09-21T05:59:40.528Z,11.88
2022-09-21T06:02:35.838Z,11.79
2022-09-21T06:05:05.947Z,11.92
2022-09-21T06:07:32.893Z,12.00
2022-09-21T06:09:59.808Z,11.89
2022-09-21T06:12:26.736Z,11.88
2022-09-21T06:14:54.004Z,11.97
2022-09-21T06:17:20.901Z,12.14
2022-09-21T06:19:47.892Z,12.08
2022-09-21T06:22:14.855Z,12.17
2022-09-21T06:24:41.797Z,12.24
2022-09-21T06:27:08.713Z,12.14
2022-09-21T06:29:35.667Z,12.18
2022-09-21T06:32:04.845Z,12.26
2022-09-21T06:34:32.031Z,12.40
2022-09-21T06:36:58.979Z,12.42
2022-09-21T06:39:25.883Z,12.67
2022-09-21T06:41:52.933Z,13.17
2022-09-21T06:44:19.839Z,13.08
2022-09-21T06:46:47.037Z,13.09
2022-09-21T06:49:14.020Z,13.36
2022-09-21T06:51:40.928Z,13.53
2022-09-21T06:54:07.950Z,13.22
2022-09-21T06:56:35.777Z,13.27
2022-09-21T06:59:02.687Z,13.33
2022-09-21T07:01:29.740Z,13.09
2022-09-21T07:03:56.868Z,13.40
2022-09-21T07:06:23.790Z,13.21
2022-09-21T07:11:41.895Z,13.68
2022-09-21T07:14:08.884Z,14.13
2022-09-21T07:16:36.035Z,14.22
2022-09-21T07:19:10.926Z,13.66
2022-09-21T07:21:38.463Z,13.76
2022-09-21T07:24:11.072Z,13.94
2022-09-21T07:26:39.175Z,14.34
2022-09-21T07:29:06.605Z,14.07
2022-09-21T07:31:33.800Z,13.91
2022-09-21T07:34:00.816Z,14.29
2022-09-21T07:36:27.789Z,14.66
2022-09-21T07:38:54.716Z,14.46
2022-09-21T07:41:22.505Z,15.15
2022-09-21T07:43:49.471Z,14.78
2022-09-21T07:46:16.475Z,14.98
2022-09-21T07:48:43.624Z,15.44
2022-09-21T07:51:13.726Z,15.33
2022-09-21T07:53:44.113Z,15.53
2022-09-21T07:56:17.525Z,16.16
2022-09-21T07:59:03.561Z,15.47
2022-09-21T08:01:31.058Z,15.37
2022-09-21T08:03:59.130Z,15.55
2022-09-21T08:06:30.999Z,15.17
2022-09-21T08:08:58.343Z,14.87
2022-09-21T08:11:27.740Z,14.59
2022-09-21T08:14:02.585Z,14.46
2022-09-21T08:16:31.643Z,15.05
2022-09-21T08:18:58.674Z,14.47
2022-09-21T08:21:25.643Z,14.33
2022-09-21T08:23:52.598Z,14.63
2022-09-21T08:26:20.682Z,15.13
2022-09-21T08:28:51.549Z,15.12
2022-09-21T08:31:22.190Z,14.79
2022-09-21T08:33:50.201Z,15.13
2022-09-21T08:36:18.766Z,14.96
2022-09-21T08:38:46.314Z,14.70
2022-09-21T08:41:28.248Z,14.67
2022-09-21T08:44:11.860Z,14.88
2022-09-21T08:46:40.281Z,14.75
2022-09-21T08:49:16.476Z,14.75
2022-09-21T08:52:15.289Z,14.69
2022-09-21T08:55:19.158Z,14.70
2022-09-21T08:57:46.158Z,14.95
2022-09-21T09:00:19.276Z,15.10
2022-09-21T09:03:05.289Z,15.13
2022-09-21T09:06:04.130Z,15.24
2022-09-21T09:09:08.561Z,15.28
2022-09-21T09:12:06.344Z,15.37
2022-09-21T09:14:56.198Z,15.56
2022-09-21T09:17:43.011Z,16.08
2022-09-21T09:20:39.812Z,15.96
2022-09-21T09:23:43.448Z,16.23
2022-09-21T09:26:20.644Z,16.18
2022-09-21T09:29:01.635Z,16.39
2022-09-21T09:31:37.146Z,16.44
2022-09-21T09:34:14.572Z,16.71
2022-09-21T09:36:58.827Z,16.72
2022-09-21T09:39:29.421Z,16.45
2022-09-21T09:42:15.135Z,16.36
2022-09-21T09:45:26.246Z,16.29
2022-09-21T09:48:17.612Z,16.49
2022-09-21T09:50:45.028Z,16.61
2022-09-21T09:53:26.665Z,16.94
2022-09-21T09:55:58.432Z,17.51
2022-09-21T09:58:50.868Z,17.52
2022-09-21T10:01:43.199Z,17.21
2022-09-21T10:04:14.868Z,17.16
2022-09-21T10:06:46.345Z,16.93
2022-09-21T10:09:31.361Z,17.01
2022-09-21T10:12:27.462Z,16.86
2022-09-21T10:15:00.120Z,17.21
2022-09-21T10:17:27.788Z,17.95
2022-09-21T10:20:06.470Z,19.08
2022-09-21T10:22:33.481Z,19.52
2022-09-21T10:25:05.208Z,19.49
2022-09-21T10:27:37.485Z,19.64
2022-09-21T10:30:05.040Z,18.96
2022-09-21T10:32:32.135Z,19.02
2022-09-21T10:35:07.887Z,18.82
2022-09-21T10:37:53.658Z,18.65
2022-09-21T10:40:20.573Z,18.99
2022-09-21T10:42:53.971Z,19.36
2022-09-21T10:45:25.680Z,19.49
2022-09-21T10:48:15.436Z,19.89
2022-09-21T10:50:46.433Z,20.28
2022-09-21T10:53:34.677Z,19.91
2022-09-21T10:56:18.882Z,19.39
2022-09-21T10:59:10.359Z,19.23
2022-09-21T11:01:42.802Z,19.75
2022-09-21T11:04:28.116Z,19.98
2022-09-21T11:07:07.867Z,20.70
2022-09-21T11:09:47.363Z,20.59
2022-09-21T11:12:33.126Z,20.66
2022-09-21T11:15:11.648Z,20.07
2022-09-21T11:18:21.724Z,19.30
2022-09-21T11:20:59.721Z,18.95
2022-09-21T11:24:10.611Z,18.52
2022-09-21T11:26:54.666Z,18.30
2022-09-21T11:30:01.803Z,18.26
2022-09-21T11:33:00.821Z,18.64
2022-09-21T11:36:01.364Z,18.35
2022-09-21T11:39:01.248Z,18.35
2022-09-21T11:41:44.802Z,18.12
2022-09-21T11:44:31.371Z,18.37
2022-09-21T11:47:04.306Z,18.48
2022-09-21T11:50:26.527Z,18.41
2022-09-21T11:53:22.677Z,18.60
2022-09-21T11:56:11.781Z,18.47
2022-09-21T11:58:57.794Z,18.33
2022-09-21T12:01:46.471Z,18.63
2022-09-21T12:04:43.526Z,18.81
2022-09-21T12:07:36.436Z,18.60
2022-09-21T12:10:18.738Z,18.61
2022-09-21T12:13:23.754Z,18.70
2022-09-21T12:16:03.327Z,18.66
2022-09-21T12:19:10.931Z,18.69
2022-09-21T12:21:45.850Z,18.83
2022-09-21T12:24:31.216Z,19.19
2022-09-21T12:27:08.681Z,18.92
2022-09-21T12:29:47.302Z,18.93
2022-09-21T12:32:55.828Z,19.28
2022-09-21T12:35:47.870Z,18.91
2022-09-21T12:38:36.543Z,19.07
2022-09-21T12:41:47.460Z,19.20
2022-09-21T12:44:52.379Z,19.13
2022-09-21T12:47:42.247Z,19.35
2022-09-21T12:50:32.099Z,19.56
2022-09-21T12:52:59.873Z,19.02
2022-09-21T12:55:34.081Z,19.14
2022-09-21T12:58:25.360Z,19.07
2022-09-21T13:01:29.229Z,19.02
2022-09-21T13:04:36.141Z,18.56
2022-09-21T13:07:55.833Z,18.34
2022-09-21T13:10:28.870Z,18.20
2022-09-21T13:13:02.150Z,17.86
2022-09-21T13:15:42.252Z,17.44
2022-09-21T13:18:33.763Z,17.80
2022-09-21T13:21:26.595Z,17.78
2022-09-21T13:24:01.735Z,17.80
2022-09-21T13:26:51.276Z,17.55
2022-09-21T13:29:19.029Z,17.66
2022-09-21T13:32:20.428Z,17.59
2022-09-21T13:34:50.973Z,17.57
2022-09-21T13:37:20.960Z,17.73
2022-09-21T13:40:05.329Z,17.85
2022-09-21T13:42:35.050Z,17.71
2022-09-21T13:45:24.050Z,17.73
2022-09-21T13:48:01.037Z,17.98
2022-09-21T13:50:43.291Z,17.73
2022-09-21T13:53:25.289Z,17.84
2022-09-21T13:55:59.906Z,17.77
2022-09-21T13:58:44.055Z,17.80
2022-09-21T14:01:48.309Z,17.93
2022-09-21T14:04:37.190Z,17.72
2022-09-21T14:07:07.913Z,17.48
2022-09-21T14:09:57.825Z,17.50
2022-09-21T14:12:27.487Z,17.63
2022-09-21T14:15:16.337Z,17.84
2022-09-21T14:17:44.146Z,17.81
2022-09-21T14:20:35.801Z,17.63
2022-09-21T14:23:24.145Z,17.79
2022-09-21T14:26:01.950Z,17.62
2022-09-21T14:28:34.886Z,17.53
2022-09-21T14:31:10.315Z,17.50
2022-09-21T14:33:55.043Z,17.56
2022-09-21T14:36:47.145Z,17.88
2022-09-21T14:39:26.102Z,17.48
2022-09-21T14:41:58.229Z,17.17
2022-09-21T14:44:30.613Z,17.16
2022-09-21T14:47:28.837Z,17.03
2022-09-21T14:50:24.207Z,17.11
2022-09-21T14:53:29.131Z,17.02
2022-09-21T14:56:29.941Z,17.15
2022-09-21T14:59:23.450Z,17.15
2022-09-21T15:02:02.435Z,17.28
2022-09-21T15:05:15.759Z,16.97
2022-09-21T15:08:42.385Z,16.99
2022-09-21T15:11:32.201Z,16.78
2022-09-21T15:14:30.213Z,16.53
2022-09-21T15:16:57.249Z,16.50
2022-09-21T15:19:29.697Z,16.42
2022-09-21T15:22:11.829Z,16.37
2022-09-21T15:24:53.988Z,16.39
2022-09-21T15:27:25.231Z,16.27
2022-09-21T15:29:56.456Z,16.19
2022-09-21T15:32:43.698Z,16.27
2022-09-21T15:35:22.030Z,16.02
2022-09-21T15:37:51.229Z,15.98
2022-09-21T15:40:28.396Z,16.05
2022-09-21T15:43:01.128Z,15.81
2022-09-21T15:45:37.296Z,15.80
2022-09-21T15:48:12.834Z,15.65
2022-09-21T15:50:43.155Z,15.40
2022-09-21T15:53:22.541Z,15.34
2022-09-21T15:55:50.509Z,15.29
2022-09-21T15:58:35.824Z,15.02
2022-09-21T16:01:12.250Z,14.94
2022-09-21T16:03:40.189Z,14.82
2022-09-21T16:06:35.611Z,14.78
2022-09-21T16:09:26.032Z,14.52
2022-09-21T16:11:55.961Z,14.47
2022-09-21T16:14:41.881Z,14.43
2022-09-21T16:17:20.348Z,14.44
2022-09-21T16:19:56.718Z,14.42
2022-09-21T16:22:41.139Z,14.30
2022-09-21T16:25:37.185Z,14.24
2022-09-21T16:28:19.162Z,14.23
2022-09-21T16:30:48.949Z,14.24
2022-09-21T16:33:49.896Z,14.20
2022-09-21T16:36:20.154Z,14.17
2022-09-21T16:38:47.270Z,14.06
2022-09-21T16:41:14.830Z,13.96
2022-09-21T16:43:43.782Z,13.90
2022-09-21T16:46:13.017Z,13.86
2022-09-21T16:48:40.655Z,13.86
2022-09-21T16:51:22.356Z,13.85
2022-09-21T16:53:49.307Z,13.70
2022-09-21T16:56:17.224Z,13.73
2022-09-21T16:58:45.208Z,13.67
2022-09-21T17:01:18.742Z,13.66
2022-09-21T17:03:47.466Z,13.65
2022-09-21T17:06:18.528Z,13.49
2022-09-21T17:08:51.346Z,13.71
2022-09-21T17:11:20.268Z,13.61
2022-09-21T17:13:51.220Z,13.43
2022-09-21T17:16:20.158Z,13.38
2022-09-21T17:18:49.105Z,13.38
2022-09-21T17:21:16.835Z,13.30
2022-09-21T17:23:43.872Z,13.15
2022-09-21T17:26:21.077Z,13.19
2022-09-21T17:28:48.096Z,13.10
2022-09-21T17:31:17.149Z,13.17
2022-09-21T17:33:46.499Z,13.18
2022-09-21T17:36:14.903Z,13.14
2022-09-21T17:38:44.982Z,12.94
2022-09-21T17:41:40.167Z,13.02
2022-09-21T17:45:08.107Z,12.90
2022-09-21T17:47:35.731Z,12.97
2022-09-21T17:50:27.342Z,12.90
2022-09-21T17:53:14.908Z,12.86
2022-09-21T17:55:54.681Z,12.92
2022-09-21T17:58:36.510Z,12.82
2022-09-21T18:01:27.520Z,12.77
2022-09-21T18:03:54.959Z,12.83
2022-09-21T18:06:22.926Z,12.80
2022-09-21T18:08:50.705Z,12.83
2022-09-21T18:12:11.963Z,12.61
2022-09-21T18:15:05.295Z,12.70
2022-09-21T18:18:03.662Z,12.59
2022-09-21T18:21:03.800Z,12.66
2022-09-21T18:24:07.890Z,12.58
2022-09-21T18:26:35.355Z,12.62
2022-09-21T18:29:22.559Z,12.58
2022-09-21T18:32:18.135Z,12.63
2022-09-21T18:35:01.861Z,12.59
2022-09-21T18:37:59.535Z,12.55
2022-09-21T18:40:44.397Z,12.53
2022-09-21T18:43:42.185Z,12.56
2022-09-21T18:46:24.789Z,12.47
2022-09-21T18:49:06.007Z,12.43
2022-09-21T18:51:51.687Z,12.39
2022-09-21T18:54:22.669Z,12.44
2022-09-21T18:56:50.219Z,12.37
2022-09-21T18:59:17.898Z,12.30
2022-09-21T19:01:47.213Z,12.33
2022-09-21T19:04:17.127Z,12.37
2022-09-21T19:07:17.956Z,12.37
2022-09-21T19:09:59.783Z,12.33
2022-09-21T19:12:44.197Z,12.28
2022-09-21T19:16:00.834Z,12.20
2022-09-21T19:18:39.870Z,12.27
2022-09-21T19:21:33.181Z,12.28
2022-09-21T19:24:23.145Z,12.36
2022-09-21T19:27:23.200Z,12.26
2022-09-21T19:30:14.547Z,12.32
2022-09-21T19:32:58.409Z,12.24
2022-09-21T19:35:29.144Z,12.21
2022-09-21T19:38:02.259Z,12.25
2022-09-21T19:40:33.400Z,12.31
2022-09-21T19:43:50.907Z,12.16
2022-09-21T19:46:54.509Z,12.09
2022-09-21T19:49:24.325Z,12.14
2022-09-21T19:51:55.919Z,12.09
2022-09-21T19:54:43.817Z,12.09
2022-09-21T19:57:35.835Z,12.06
2022-09-21T20:00:06.397Z,12.19
2022-09-21T20:03:17.609Z,12.05
2022-09-21T20:06:22.850Z,12.07
2022-09-21T20:09:18.067Z,12.26
2022-09-21T20:11:52.112Z,12.16
2022-09-21T20:14:30.857Z,12.13
2022-09-21T20:17:00.996Z,12.15
2022-09-21T20:20:08.082Z,12.03
2022-09-21T20:22:40.631Z,11.96
2022-09-21T20:25:31.168Z,12.01
2022-09-21T20:27:59.525Z,11.87
2022-09-21T20:30:33.262Z,11.86
2022-09-21T20:33:14.714Z,11.80
2022-09-21T20:35:42.994Z,11.90
2022-09-21T20:38:12.768Z,11.84
2022-09-21T20:40:41.847Z,11.87
2022-09-21T20:43:14.188Z,11.72
2022-09-21T20:45:46.340Z,11.77
2022-09-21T20:48:13.571Z,11.80
2022-09-21T20:50:49.405Z,11.68
2022-09-21T20:53:17.585Z,11.70
2022-09-21T20:55:55.102Z,11.68
2022-09-21T20:58:22.309Z,11.58
2022-09-21T21:00:50.517Z,11.56
2022-09-21T21:03:19.213Z,11.53
2022-09-21T21:05:46.150Z,11.49
2022-09-21T21:08:13.240Z,11.46
2022-09-21T21:10:46.658Z,11.54
2022-09-21T21:13:13.678Z,11.42
2022-09-21T21:15:40.662Z,11.41
2022-09-21T21:18:12.486Z,11.38
2022-09-21T21:20:41.124Z,11.33
2022-09-21T21:23:08.435Z,11.42
2022-09-21T21:25:36.404Z,11.24
2022-09-21T21:28:04.432Z,11.26
2022-09-21T21:30:31.801Z,11.23
2022-09-21T21:32:59.433Z,11.21
2022-09-21T21:35:30.213Z,11.14
2022-09-21T21:37:59.039Z,11.09
2022-09-21T21:40:26.199Z,11.06
2022-09-21T21:42:56.226Z,11.03
2022-09-21T21:45:23.692Z,10.96
2022-09-21T21:47:51.070Z,10.92
2022-09-21T21:50:18.089Z,10.92
2022-09-21T21:52:45.301Z,10.91
2022-09-21T21:55:12.646Z,11.05
2022-09-21T21:57:40.101Z,10.99
2022-09-21T22:00:09.019Z,10.91
2022-09-21T22:02:35.976Z,11.00
2022-09-21T22:05:03.045Z,10.82
2022-09-21T22:07:29.967Z,10.92
2022-09-21T22:09:56.873Z,10.90
2022-09-21T22:12:24.944Z,10.89
2022-09-21T22:14:51.941Z,10.89
2022-09-21T22:17:19.333Z,11.00
2022-09-21T22:19:46.887Z,10.99
2022-09-21T22:22:13.829Z,10.89
2022-09-21T22:24:40.723Z,10.85
2022-09-21T22:27:07.673Z,10.75
2022-09-21T22:29:35.434Z,10.78
2022-09-21T22:32:02.784Z,10.75
2022-09-21T22:34:30.675Z,10.78
2022-09-21T22:36:59.221Z,10.74
2022-09-21T22:39:26.200Z,10.80
2022-09-21T22:41:53.170Z,10.87
2022-09-21T22:44:20.154Z,10.74
2022-09-21T22:46:47.044Z,10.74
2022-09-21T22:49:14.001Z,10.71
2022-09-21T22:51:41.022Z,10.68
2022-09-21T22:54:08.052Z,10.65
2022-09-21T22:56:35.339Z,10.63
2022-09-21T22:59:05.605Z,10.57
2022-09-21T23:01:39.378Z,10.69
2022-09-21T23:04:10.943Z,10.58
2022-09-21T23:06:41.910Z,10.60
2022-09-21T23:09:14.767Z,10.56
2022-09-21T23:11:47.626Z,10.50
2022-09-21T23:14:16.472Z,10.58
2022-09-21T23:16:43.767Z,10.49
2022-09-21T23:19:15.995Z,10.47
2022-09-21T23:21:50.038Z,10.42
2022-09-21T23:24:17.756Z,10.34
2022-09-21T23:26:45.634Z,10.37
2022-09-21T23:29:15.223Z,10.42
2022-09-21T23:31:45.489Z,10.47
2022-09-21T23:34:14.173Z,10.46
2022-09-21T23:36:42.489Z,10.38
2022-09-21T23:39:13.168Z,10.20
2022-09-21T23:41:40.525Z,10.22
2022-09-21T23:44:07.847Z,10.34
2022-09-21T23:46:37.398Z,10.31
2022-09-21T23:49:04.908Z,10.16
2022-09-21T23:51:32.306Z,10.13
2022-09-21T23:53:59.853Z,10.25
2022-09-21T23:56:28.456Z,10.15
2022-09-21T23:58:56.125Z,10.05
